Time;durP1;ratioP1;P1;durP2;ratioP2;P2;SDS_P1;SDS_P2;PMS_P1;PMS_P2;Temp;Humidity;BMP_temperature;BMP_pressure;BME280_temperature;BME280_humidity;BME280_pressure;Samples;Min_cycle;Max_cycle;Signal;HPM_P1;HPM_P2
2022/06/18 00:00:48;;;;;;;7.77;4.53;;;21.00;58.70;;;;;;5084325;28;20467;-71
2022/06/18 00:03:14;;;;;;;6.63;4.47;;;20.90;59.10;;;;;;5092275;28;20532;-72
2022/06/18 00:05:41;;;;;;;4.97;3.30;;;20.90;59.20;;;;;;5090121;28;20933;-72
2022/06/18 00:08:18;;;;;;;7.23;3.00;;;20.90;58.70;;;;;;5082458;28;20470;-72
2022/06/18 00:10:44;;;;;;;3.77;2.53;;;20.90;57.30;;;;;;5080262;28;20970;-71
2022/06/18 00:16:05;;;;;;;4.87;3.50;;;20.90;57.30;;;;;;5080412;28;21214;-72
2022/06/18 00:18:31;;;;;;;5.10;3.50;;;21.00;57.80;;;;;;5095006;28;20451;-72
2022/06/18 00:21:00;;;;;;;4.87;3.60;;;20.90;58.50;;;;;;5103063;28;20446;-71
2022/06/18 00:23:26;;;;;;;4.57;3.83;;;21.00;58.80;;;;;;5103446;28;20182;-72
2022/06/18 00:25:52;;;;;;;4.40;3.53;;;21.00;58.80;;;;;;5103482;28;20479;-73
2022/06/18 00:28:28;;;;;;;3.97;2.93;;;20.90;58.50;;;;;;5082741;28;20934;-73
2022/06/18 00:30:54;;;;;;;5.30;3.70;;;21.00;58.00;;;;;;5081342;28;20432;-72
2022/06/18 00:33:22;;;;;;;7.30;4.10;;;21.00;58.10;;;;;;5078540;28;20420;-73
2022/06/18 00:35:50;;;;;;;6.97;3.80;;;20.90;59.20;;;;;;5081634;28;20460;-72
2022/06/18 00:38:43;;;;;;;6.30;4.17;;;20.90;58.90;;;;;;5076397;28;20469;-72
2022/06/18 00:41:25;;;;;;;5.70;3.83;;;20.90;59.30;;;;;;5077414;28;20469;-73
2022/06/18 00:43:58;;;;;;;8.10;4.70;;;20.90;59.60;;;;;;5079105;28;20443;-72
2022/06/18 00:46:24;;;;;;;7.00;4.10;;;20.90;59.60;;;;;;5084587;28;20532;-72
2022/06/18 00:49:06;;;;;;;4.63;3.83;;;20.80;59.70;;;;;;5082243;28;20877;-72
2022/06/18 00:51:37;;;;;;;4.40;3.80;;;20.80;59.90;;;;;;5075642;28;20440;-73
2022/06/18 00:54:18;;;;;;;5.40;4.43;;;20.70;60.10;;;;;;5082995;28;20518;-72
2022/06/18 00:56:51;;;;;;;4.13;3.50;;;20.70;60.10;;;;;;5077677;28;21135;-72
2022/06/18 00:59:32;;;;;;;5.63;3.40;;;20.70;60.30;;;;;;5087214;28;20454;-71
2022/06/18 01:02:00;;;;;;;4.60;3.80;;;20.80;59.70;;;;;;5089391;28;20411;-72
2022/06/18 01:04:32;;;;;;;5.27;4.07;;;20.80;59.60;;;;;;5087737;28;20422;-73
2022/06/18 01:07:01;;;;;;;7.13;3.93;;;20.80;59.50;;;;;;5087233;28;20430;-73
2022/06/18 01:09:27;;;;;;;6.30;3.57;;;20.80;59.60;;;;;;5085895;28;20935;-72
2022/06/18 01:11:54;;;;;;;4.73;3.60;;;20.80;59.90;;;;;;5080302;28;20955;-73
2022/06/18 01:14:21;;;;;;;7.13;3.87;;;20.80;59.70;;;;;;5085382;28;20431;-72
2022/06/18 01:16:46;;;;;;;4.80;3.70;;;20.80;59.70;;;;;;5078557;28;20486;-72
2022/06/18 01:19:30;;;;;;;6.07;3.53;;;20.80;60.00;;;;;;5082015;28;20455;-71
2022/06/18 01:22:18;;;;;;;6.33;3.87;;;20.80;60.00;;;;;;5085648;28;20182;-73
2022/06/18 01:24:44;;;;;;;5.87;4.10;;;20.80;60.00;;;;;;5078864;28;20435;-72
2022/06/18 01:27:11;;;;;;;4.67;3.77;;;20.80;60.00;;;;;;5088326;28;20577;-72
2022/06/18 01:29:38;;;;;;;4.90;3.63;;;20.70;59.70;;;;;;5079085;28;20485;-71
2022/06/18 01:32:07;;;;;;;4.87;3.50;;;20.70;59.90;;;;;;5085879;28;20418;-72
2022/06/18 01:34:35;;;;;;;5.87;3.90;;;20.60;60.10;;;;;;5083999;28;20426;-72
2022/06/18 01:37:02;;;;;;;5.20;3.83;;;20.50;60.40;;;;;;5085805;28;20467;-71
2022/06/18 01:39:33;;;;;;;4.87;3.57;;;20.60;60.40;;;;;;5087907;28;20455;-71
2022/06/18 01:42:09;;;;;;;6.23;3.80;;;20.60;60.00;;;;;;5086372;28;21021;-71
2022/06/18 01:44:41;;;;;;;6.00;3.77;;;20.50;60.40;;;;;;5094329;28;20821;-73
2022/06/18 01:47:15;;;;;;;4.90;3.67;;;20.50;60.90;;;;;;5085829;28;21008;-72
2022/06/18 01:49:59;;;;;;;6.20;3.83;;;20.50;60.90;;;;;;5090899;28;20460;-74
2022/06/18 01:52:32;;;;;;;7.60;4.13;;;20.50;61.00;;;;;;5088905;28;20420;-73
2022/06/18 01:55:01;;;;;;;5.03;3.83;;;20.50;60.90;;;;;;5088392;28;20523;-73
2022/06/18 01:57:36;;;;;;;5.00;3.90;;;20.50;60.70;;;;;;5084188;28;20475;-72
2022/06/18 02:00:14;;;;;;;4.00;3.20;;;20.50;60.70;;;;;;5084994;28;20543;-73
2022/06/18 02:02:42;;;;;;;6.37;4.07;;;20.40;61.30;;;;;;5086206;28;20426;-72
2022/06/18 02:05:08;;;;;;;4.73;4.10;;;20.40;60.90;;;;;;5088865;28;20454;-71
2022/06/18 02:07:35;;;;;;;6.47;4.23;;;20.40;60.60;;;;;;5087427;28;20423;-73
2022/06/18 02:10:08;;;;;;;4.80;4.10;;;20.30;61.00;;;;;;5097826;28;21116;-71
2022/06/18 02:12:38;;;;;;;4.67;3.83;;;20.30;61.60;;;;;;5085847;28;20444;-72
2022/06/18 02:15:08;;;;;;;5.40;3.97;;;20.30;61.60;;;;;;5082442;28;20518;-71
2022/06/18 02:17:34;;;;;;;7.80;4.60;;;20.30;61.30;;;;;;5080361;28;20427;-72
2022/06/18 02:20:25;;;;;;;5.40;3.93;;;20.30;61.30;;;;;;5079998;28;20545;-70
2022/06/18 02:22:53;;;;;;;5.33;4.30;;;20.30;61.30;;;;;;5087797;28;20410;-72
2022/06/18 02:25:23;;;;;;;4.87;4.17;;;20.40;61.00;;;;;;5084358;28;20415;-72
2022/06/18 02:27:54;;;;;;;5.87;4.50;;;20.30;61.30;;;;;;5086825;28;20415;-71
2022/06/18 02:30:24;;;;;;;5.63;3.90;;;20.30;61.90;;;;;;5081843;28;20452;-71
2022/06/18 02:33:01;;;;;;;5.60;4.07;;;20.30;62.00;;;;;;5086044;28;20407;-71
2022/06/18 02:35:32;;;;;;;7.60;4.00;;;20.30;61.90;;;;;;5092742;28;20402;-71
2022/06/18 02:37:59;;;;;;;6.33;4.47;;;20.30;62.20;;;;;;5086965;28;20428;-72
2022/06/18 02:40:28;;;;;;;5.33;4.10;;;20.30;62.30;;;;;;5085849;28;20833;-70
2022/06/18 02:42:58;;;;;;;5.80;3.60;;;20.30;62.50;;;;;;5087451;28;20431;-71
2022/06/18 02:45:25;;;;;;;7.23;4.60;;;20.20;62.80;;;;;;5086577;28;20417;-72
2022/06/18 02:47:54;;;;;;;4.80;4.00;;;20.20;62.60;;;;;;5095100;28;20423;-72
2022/06/18 02:50:22;;;;;;;6.53;4.77;;;20.10;62.90;;;;;;5093510;28;20975;-72
2022/06/18 02:52:55;;;;;;;4.43;3.93;;;20.10;62.80;;;;;;5091791;28;20442;-71
2022/06/18 02:55:27;;;;;;;5.47;4.23;;;20.10;63.20;;;;;;5083844;28;20442;-70
2022/06/18 02:58:00;;;;;;;5.10;4.50;;;20.00;63.40;;;;;;5084721;28;20430;-73
2022/06/18 03:00:26;;;;;;;5.10;4.00;;;20.00;63.70;;;;;;5087103;28;20843;-72
2022/06/18 03:02:52;;;;;;;5.57;4.10;;;20.00;63.90;;;;;;5088418;28;20433;-72
2022/06/18 03:05:23;;;;;;;5.60;4.27;;;20.00;64.10;;;;;;5085469;28;20187;-72
2022/06/18 03:07:49;;;;;;;4.87;4.27;;;20.00;64.20;;;;;;5079141;28;20223;-70
2022/06/18 03:13:01;;;;;;;6.03;4.70;;;20.00;64.50;;;;;;5075301;28;20479;-72
2022/06/18 03:15:30;;;;;;;7.13;4.97;;;19.90;64.40;;;;;;5086250;28;20438;-72
2022/06/18 03:17:57;;;;;;;5.80;4.13;;;19.80;64.50;;;;;;5082871;28;20427;-73
2022/06/18 03:20:37;;;;;;;6.87;4.30;;;19.80;64.80;;;;;;5088034;28;20455;-70
2022/06/18 03:23:05;;;;;;;7.23;4.30;;;19.80;65.00;;;;;;5086657;28;20430;-71
2022/06/18 03:25:31;;;;;;;4.60;4.13;;;19.80;64.40;;;;;;5085726;28;20449;-72
2022/06/18 03:27:56;;;;;;;7.80;4.70;;;19.80;64.70;;;;;;5085578;28;20422;-72
2022/06/18 03:30:22;;;;;;;8.70;4.53;;;19.90;64.20;;;;;;5090177;28;20207;-72
2022/06/18 03:32:48;;;;;;;6.57;4.30;;;19.80;63.70;;;;;;5091139;28;20653;-71
2022/06/18 03:35:14;;;;;;;8.07;4.50;;;19.80;63.70;;;;;;5086157;28;20958;-72
2022/06/18 03:37:39;;;;;;;6.20;4.70;;;19.70;63.70;;;;;;5084350;28;20187;-73
2022/06/18 03:40:06;;;;;;;6.03;4.50;;;19.70;63.90;;;;;;5076859;28;20204;-72
2022/06/18 03:42:31;;;;;;;10.87;5.10;;;19.60;64.20;;;;;;5083141;28;20179;-73
2022/06/18 03:44:57;;;;;;;8.20;4.13;;;19.60;64.40;;;;;;5108813;27;20480;-72
2022/06/18 03:47:23;;;;;;;5.50;4.50;;;19.60;64.40;;;;;;5083122;28;20179;-72
2022/06/18 03:49:49;;;;;;;7.23;4.10;;;19.60;64.40;;;;;;5078316;28;20211;-73
2022/06/18 03:52:15;;;;;;;7.50;4.47;;;19.60;64.40;;;;;;5091430;28;21021;-72
2022/06/18 03:54:40;;;;;;;5.60;4.60;;;19.60;64.70;;;;;;5098659;28;20433;-73
2022/06/18 03:57:06;;;;;;;8.87;4.63;;;19.60;64.50;;;;;;5099122;28;20210;-73
2022/06/18 03:59:33;;;;;;;7.03;4.60;;;19.50;64.70;;;;;;5094468;28;20199;-71
2022/06/18 04:01:59;;;;;;;6.50;4.40;;;19.50;64.70;;;;;;5104602;28;20432;-72
2022/06/18 04:04:25;;;;;;;6.50;4.60;;;19.50;65.30;;;;;;5087569;28;20514;-73
2022/06/18 04:06:51;;;;;;;5.20;4.53;;;19.50;65.40;;;;;;5090281;28;20200;-72
2022/06/18 04:09:16;;;;;;;7.43;4.80;;;19.60;65.00;;;;;;5092949;28;20231;-71
2022/06/18 04:11:42;;;;;;;5.50;4.43;;;19.60;64.70;;;;;;5089499;28;20191;-72
2022/06/18 04:14:08;;;;;;;7.13;4.97;;;19.70;64.10;;;;;;5086777;28;20191;-70
2022/06/18 04:16:34;;;;;;;5.83;4.40;;;19.70;63.80;;;;;;5090930;28;20203;-72
2022/06/18 04:18:59;;;;;;;7.23;4.73;;;19.60;64.20;;;;;;5086259;28;20212;-70
2022/06/18 04:21:25;;;;;;;11.90;5.50;;;19.60;64.40;;;;;;5093630;28;20489;-74
2022/06/18 04:23:51;;;;;;;7.00;5.07;;;19.60;64.20;;;;;;5087001;28;20218;-72
2022/06/18 04:26:17;;;;;;;13.30;4.80;;;19.60;64.40;;;;;;5082767;28;20179;-72
2022/06/18 04:28:43;;;;;;;5.60;4.57;;;19.70;64.10;;;;;;5075595;28;20212;-72
2022/06/18 04:31:09;;;;;;;7.30;4.70;;;19.70;64.20;;;;;;5083580;28;20839;-72
2022/06/18 04:33:34;;;;;;;6.70;4.60;;;19.70;64.20;;;;;;5079497;28;20550;-73
2022/06/18 04:36:00;;;;;;;5.40;4.47;;;19.70;64.20;;;;;;5080701;28;20691;-73
2022/06/18 04:38:27;;;;;;;10.17;4.87;;;19.80;65.00;;;;;;5081982;28;20185;-71
2022/06/18 04:40:53;;;;;;;5.70;4.60;;;19.80;65.40;;;;;;5083061;28;20185;-73
2022/06/18 04:43:19;;;;;;;5.03;3.97;;;19.90;65.60;;;;;;5085479;28;20411;-71
2022/06/18 04:45:45;;;;;;;6.57;4.40;;;20.00;65.30;;;;;;5083124;28;20424;-71
2022/06/18 04:48:13;;;;;;;4.83;4.10;;;20.10;65.30;;;;;;5087609;28;20431;-74
2022/06/18 04:50:39;;;;;;;6.87;4.47;;;20.30;65.10;;;;;;5078083;28;20197;-72
2022/06/18 04:53:07;;;;;;;5.00;4.50;;;20.40;65.10;;;;;;5086235;28;20993;-73
2022/06/18 04:55:34;;;;;;;5.83;4.80;;;20.40;65.10;;;;;;5076294;28;20468;-74
2022/06/18 04:58:00;;;;;;;5.30;4.77;;;20.50;64.80;;;;;;5083764;28;20428;-74
2022/06/18 05:00:26;;;;;;;5.13;4.47;;;20.60;64.70;;;;;;5078125;28;20448;-73
2022/06/18 05:02:51;;;;;;;5.27;4.30;;;20.70;64.70;;;;;;5088020;28;20177;-74
2022/06/18 05:05:23;;;;;;;5.63;4.20;;;20.70;64.40;;;;;;5081727;28;20187;-72
2022/06/18 05:07:49;;;;;;;6.00;4.33;;;20.80;64.40;;;;;;5083115;28;20183;-73
2022/06/18 05:10:15;;;;;;;5.80;4.93;;;20.90;64.40;;;;;;5076341;28;20455;-71
2022/06/18 05:12:41;;;;;;;8.10;4.93;;;20.90;64.10;;;;;;5087046;28;20795;-75
2022/06/18 05:15:08;;;;;;;4.90;4.60;;;20.90;63.80;;;;;;5083230;28;21033;-76
2022/06/18 05:17:39;;;;;;;7.50;4.83;;;20.90;63.50;;;;;;5084360;28;20511;-70
2022/06/18 05:20:06;;;;;;;5.40;4.87;;;21.10;63.20;;;;;;5076958;28;20951;-71
2022/06/18 05:22:32;;;;;;;6.50;4.97;;;21.10;63.20;;;;;;5079823;28;20416;-73
2022/06/18 05:24:58;;;;;;;9.47;6.27;;;21.10;63.50;;;;;;5077754;28;20431;-72
2022/06/18 05:27:30;;;;;;;8.10;5.47;;;21.10;63.40;;;;;;5083192;28;20186;-71
2022/06/18 05:29:56;;;;;;;6.70;5.00;;;21.20;63.20;;;;;;5090110;28;20464;-68
2022/06/18 05:32:22;;;;;;;8.97;5.33;;;21.30;62.90;;;;;;5094268;28;20420;-69
2022/06/18 05:34:48;;;;;;;5.70;5.40;;;21.30;62.80;;;;;;5077377;28;20435;-69
2022/06/18 05:37:18;;;;;;;6.53;5.03;;;21.40;62.50;;;;;;5075136;28;20471;-69
2022/06/18 05:39:45;;;;;;;5.77;4.60;;;21.50;62.50;;;;;;5080604;28;20500;-69
2022/06/18 05:42:10;;;;;;;9.93;5.47;;;21.60;62.50;;;;;;5074841;28;21191;-71
2022/06/18 05:44:37;;;;;;;7.10;5.90;;;21.60;62.30;;;;;;5083231;28;20432;-70
2022/06/18 05:47:18;;;;;;;8.67;6.00;;;21.60;62.20;;;;;;5082243;28;20195;-68
2022/06/18 05:49:44;;;;;;;5.23;4.93;;;21.70;61.90;;;;;;5092785;28;20673;-69
2022/06/18 05:52:10;;;;;;;8.43;5.80;;;21.80;61.60;;;;;;5074520;28;20434;-67
2022/06/18 05:54:36;;;;;;;7.43;5.07;;;21.90;60.90;;;;;;5078421;28;20600;-69
2022/06/18 05:57:03;;;;;;;7.37;5.57;;;21.90;60.70;;;;;;5081760;28;20705;-70
2022/06/18 05:59:29;;;;;;;6.33;5.10;;;22.10;60.70;;;;;;5075295;28;21193;-70
2022/06/18 06:01:56;;;;;;;7.47;5.77;;;22.10;61.20;;;;;;5077167;28;20436;-67
2022/06/18 06:04:26;;;;;;;8.07;5.77;;;22.10;61.50;;;;;;5079313;28;20469;-68
2022/06/18 06:06:52;;;;;;;10.63;6.40;;;22.20;61.30;;;;;;5080033;28;20431;-69
2022/06/18 06:12:08;;;;;;;9.03;5.70;;;22.50;60.70;;;;;;5080840;28;20484;-70
2022/06/18 06:14:34;;;;;;;9.47;5.20;;;22.50;60.30;;;;;;5080490;28;20859;-70
2022/06/18 06:17:00;;;;;;;8.63;5.20;;;22.50;60.60;;;;;;5083652;28;20475;-73
2022/06/18 06:19:26;;;;;;;6.90;5.23;;;22.60;60.40;;;;;;5080941;28;20216;-72
2022/06/18 06:21:51;;;;;;;9.37;5.70;;;22.70;60.40;;;;;;5088108;28;20184;-71
2022/06/18 06:24:17;;;;;;;8.73;6.00;;;22.80;60.00;;;;;;5085669;28;20642;-71
2022/06/18 06:26:43;;;;;;;7.60;5.93;;;22.80;59.90;;;;;;5081157;28;20192;-72
2022/06/18 06:29:10;;;;;;;5.80;5.33;;;22.80;59.90;;;;;;5081943;28;20214;-71
2022/06/18 06:31:36;;;;;;;9.17;6.20;;;22.90;60.00;;;;;;5081276;28;20189;-71
2022/06/18 06:34:01;;;;;;;9.37;6.27;;;23.00;59.70;;;;;;5082090;28;20427;-71
2022/06/18 06:36:27;;;;;;;10.03;5.00;;;23.10;59.90;;;;;;5079873;28;20471;-70
2022/06/18 06:38:53;;;;;;;11.13;6.23;;;23.10;59.30;;;;;;5073225;28;20687;-71
2022/06/18 06:41:25;;;;;;;8.27;6.20;;;23.20;59.50;;;;;;5080034;28;20191;-71
2022/06/18 06:43:51;;;;;;;8.00;5.17;;;23.30;58.90;;;;;;5084836;28;20284;-72
2022/06/18 06:46:18;;;;;;;10.23;5.90;;;23.30;58.70;;;;;;5081247;28;20522;-72
2022/06/18 06:48:44;;;;;;;7.40;5.83;;;23.40;58.80;;;;;;5082613;28;20589;-71
2022/06/18 06:51:19;;;;;;;9.00;5.50;;;23.60;58.50;;;;;;5077371;28;20953;-72
2022/06/18 06:53:45;;;;;;;7.83;5.87;;;23.70;58.50;;;;;;5084997;28;20493;-71
2022/06/18 06:58:57;;;;;;;7.93;5.47;;;24.00;56.80;;;;;;5085035;28;21037;-71
2022/06/18 07:01:23;;;;;;;8.77;5.83;;;24.30;56.10;;;;;;5083157;28;20414;-71
2022/06/18 07:03:49;;;;;;;7.40;5.30;;;24.30;55.30;;;;;;5080990;28;20709;-72
2022/06/18 07:06:16;;;;;;;8.00;6.00;;;24.40;55.30;;;;;;5083964;28;21260;-71
2022/06/18 07:08:43;;;;;;;9.90;5.57;;;24.50;54.80;;;;;;5084737;28;20493;-70
2022/06/18 07:11:10;;;;;;;10.53;5.50;;;24.60;54.90;;;;;;5085661;28;20427;-70
2022/06/18 07:13:36;;;;;;;11.47;6.00;;;24.80;55.70;;;;;;5096543;28;20485;-70
2022/06/18 07:16:02;;;;;;;10.20;5.77;;;24.90;55.30;;;;;;5103679;28;20475;-70
2022/06/18 07:18:35;;;;;;;7.40;5.70;;;25.00;55.70;;;;;;5100458;28;20200;-71
2022/06/18 07:21:03;;;;;;;8.53;5.83;;;25.00;54.60;;;;;;5106403;28;20179;-72
2022/06/18 07:23:30;;;;;;;8.23;5.57;;;25.10;54.50;;;;;;5091589;28;20420;-71
2022/06/18 07:25:56;;;;;;;7.57;6.17;;;25.20;53.80;;;;;;5080119;28;20431;-71
2022/06/18 07:28:22;;;;;;;7.47;5.97;;;25.30;53.20;;;;;;5082377;28;20434;-71
2022/06/18 07:30:48;;;;;;;6.77;5.93;;;25.30;53.70;;;;;;5085499;28;20428;-71
2022/06/18 07:33:18;;;;;;;10.43;6.50;;;25.40;54.40;;;;;;5077938;28;20420;-71
2022/06/18 07:35:44;;;;;;;8.47;5.60;;;25.50;54.40;;;;;;5083029;28;20467;-72
2022/06/18 07:38:10;;;;;;;7.63;5.57;;;25.50;54.40;;;;;;5077820;28;20522;-70
2022/06/18 07:40:44;;;;;;;9.83;6.50;;;25.60;53.80;;;;;;5077246;28;20577;-72
2022/06/18 07:43:20;;;;;;;9.27;6.10;;;25.70;54.10;;;;;;5082248;28;20928;-71
2022/06/18 07:45:46;;;;;;;12.50;5.80;;;25.80;53.60;;;;;;5093069;28;20482;-71
2022/06/18 07:48:13;;;;;;;8.50;5.40;;;25.80;53.20;;;;;;5095579;28;20433;-71
2022/06/18 07:50:46;;;;;;;7.37;5.33;;;25.90;52.80;;;;;;5085211;28;20447;-70
2022/06/18 07:53:23;;;;;;;7.07;4.90;;;26.00;51.80;;;;;;5088746;28;20424;-72
2022/06/18 07:55:50;;;;;;;5.90;5.57;;;26.10;52.10;;;;;;5091373;28;20466;-71
2022/06/18 07:58:16;;;;;;;10.53;5.70;;;26.10;52.60;;;;;;5086995;28;21263;-71
2022/06/18 08:00:44;;;;;;;5.97;5.03;;;26.10;52.90;;;;;;5081699;28;20511;-70
2022/06/18 08:03:13;;;;;;;6.97;5.30;;;26.20;52.50;;;;;;5085723;28;20439;-72
2022/06/18 08:05:39;;;;;;;7.40;5.50;;;26.40;52.40;;;;;;5080828;28;20433;-69
2022/06/18 08:08:05;;;;;;;9.83;5.90;;;26.50;52.60;;;;;;5084755;28;20424;-72
2022/06/18 08:10:34;;;;;;;6.37;5.60;;;26.50;53.40;;;;;;5078224;28;20229;-71
2022/06/18 08:12:59;;;;;;;6.80;5.73;;;26.60;53.00;;;;;;5083082;28;20429;-70
2022/06/18 08:15:26;;;;;;;5.70;5.00;;;26.70;51.60;;;;;;5089008;28;20531;-70
2022/06/18 08:17:52;;;;;;;6.83;5.30;;;26.70;51.70;;;;;;5090750;28;20234;-71
2022/06/18 08:20:18;;;;;;;8.07;5.50;;;26.80;51.40;;;;;;5081510;28;20468;-70
2022/06/18 08:22:48;;;;;;;9.30;5.20;;;26.90;51.30;;;;;;5082794;28;20186;-72
2022/06/18 08:25:15;;;;;;;10.37;5.70;;;26.90;50.90;;;;;;5085144;28;20471;-72
2022/06/18 08:27:43;;;;;;;8.13;5.17;;;26.90;49.50;;;;;;5083323;28;20435;-72
2022/06/18 08:30:09;;;;;;;13.43;5.73;;;26.90;49.80;;;;;;5084786;28;20467;-73
2022/06/18 08:32:35;;;;;;;8.80;5.70;;;27.00;50.50;;;;;;5084299;28;20429;-71
2022/06/18 08:35:01;;;;;;;9.97;5.03;;;27.10;50.60;;;;;;5081217;28;20429;-71
2022/06/18 08:37:28;;;;;;;5.13;4.93;;;27.20;50.20;;;;;;5084183;28;20301;-71
2022/06/18 08:39:54;;;;;;;5.93;4.63;;;27.30;47.80;;;;;;5077428;28;20493;-71
2022/06/18 08:42:47;;;;;;;7.40;4.97;;;27.40;47.00;;;;;;5083797;28;20466;-70
2022/06/18 08:45:32;;;;;;;6.03;5.03;;;27.50;45.80;;;;;;5096656;28;20444;-72
2022/06/18 08:48:03;;;;;;;5.80;4.07;;;27.50;46.50;;;;;;5086751;28;20931;-73
2022/06/18 08:50:32;;;;;;;4.90;4.00;;;27.60;43.00;;;;;;5083581;28;20445;-72
2022/06/18 08:52:57;;;;;;;6.00;5.27;;;27.80;45.10;;;;;;5084483;28;20479;-72
2022/06/18 08:55:38;;;;;;;9.53;5.23;;;27.80;45.70;;;;;;5081173;28;20838;-73
2022/06/18 08:58:10;;;;;;;6.33;4.10;;;27.90;45.40;;;;;;5081485;28;20657;-71
2022/06/18 09:00:54;;;;;;;5.90;4.90;;;28.00;44.20;;;;;;5082830;28;20544;-73
2022/06/18 09:03:32;;;;;;;5.80;4.13;;;28.00;43.40;;;;;;5077999;28;20429;-72
2022/06/18 09:06:12;;;;;;;5.90;4.37;;;28.00;43.40;;;;;;5078567;28;20422;-72
2022/06/18 09:08:47;;;;;;;5.27;3.90;;;28.10;42.80;;;;;;5076154;28;20466;-72
2022/06/18 09:11:18;;;;;;;6.70;3.73;;;28.20;43.40;;;;;;5080399;28;20426;-72
2022/06/18 09:13:49;;;;;;;4.63;3.53;;;28.40;40.00;;;;;;5079520;28;20421;-71
2022/06/18 09:16:20;;;;;;;6.93;3.47;;;28.60;38.80;;;;;;5079929;28;21003;-73
2022/06/18 09:18:52;;;;;;;6.97;4.07;;;28.70;38.80;;;;;;5083276;28;20454;-72
2022/06/18 09:21:38;;;;;;;5.67;4.07;;;28.60;40.40;;;;;;5078441;28;20418;-72
2022/06/18 09:24:06;;;;;;;5.50;3.80;;;28.70;40.00;;;;;;5082572;28;20993;-71
2022/06/18 09:26:43;;;;;;;4.03;3.57;;;28.60;39.50;;;;;;5080929;28;20417;-71
2022/06/18 09:29:27;;;;;;;4.97;4.00;;;28.70;39.90;;;;;;5083507;28;20454;-72
2022/06/18 09:31:58;;;;;;;6.17;4.30;;;28.80;39.40;;;;;;5088488;28;20507;-71
2022/06/18 09:34:43;;;;;;;4.97;4.40;;;28.80;39.60;;;;;;5081007;28;20504;-72
2022/06/18 09:37:18;;;;;;;6.30;4.10;;;29.00;38.70;;;;;;5081250;28;20498;-71
2022/06/18 09:39:48;;;;;;;5.57;4.00;;;29.00;39.60;;;;;;5081110;28;20454;-72
2022/06/18 09:42:31;;;;;;;5.13;3.90;;;29.10;38.80;;;;;;5080301;28;20946;-72
2022/06/18 09:45:22;;;;;;;6.27;3.87;;;29.30;39.50;;;;;;5078140;28;20461;-72
2022/06/18 09:47:48;;;;;;;5.90;3.47;;;29.50;39.00;;;;;;5088461;28;20452;-71
2022/06/18 09:50:27;;;;;;;4.77;3.93;;;29.50;36.30;;;;;;5081950;28;20463;-72
2022/06/18 09:53:04;;;;;;;7.33;4.23;;;29.50;37.20;;;;;;5081439;28;20417;-73
2022/06/18 09:55:47;;;;;;;5.70;3.33;;;29.50;34.90;;;;;;5081422;28;20536;-72
2022/06/18 09:58:27;;;;;;;4.10;3.67;;;29.60;36.40;;;;;;5080348;28;20410;-71
2022/06/18 10:00:55;;;;;;;4.07;3.30;;;29.80;36.20;;;;;;5082107;28;20449;-72
2022/06/18 10:09:02;;;;;;;5.20;2.80;;;30.30;28.00;;;;;;5081702;28;20549;-72
2022/06/18 10:11:28;;;;;;;3.77;2.70;;;30.50;29.10;;;;;;5086144;28;20436;-71
2022/06/18 10:14:19;;;;;;;3.37;2.93;;;30.80;30.10;;;;;;5086123;28;20424;-72
2022/06/18 10:17:21;;;;;;;3.27;2.90;;;31.00;29.90;;;;;;5088673;28;20933;-71
2022/06/18 10:20:02;;;;;;;4.10;2.77;;;31.10;30.90;;;;;;5085790;28;20487;-72
2022/06/18 10:22:52;;;;;;;4.67;2.90;;;31.30;29.80;;;;;;5086331;28;20422;-72
2022/06/18 10:25:33;;;;;;;7.73;3.27;;;31.50;29.50;;;;;;5084183;28;20413;-72
2022/06/18 10:27:59;;;;;;;4.60;2.57;;;31.90;28.80;;;;;;5078539;28;20526;-72
2022/06/18 10:30:39;;;;;;;3.33;2.40;;;32.30;26.70;;;;;;5092439;28;20471;-72
2022/06/18 10:33:23;;;;;;;3.43;3.00;;;32.50;27.90;;;;;;5096949;28;20198;-72
2022/06/18 10:36:15;;;;;;;4.27;2.93;;;32.70;28.80;;;;;;5104988;28;20461;-73
2022/06/18 10:39:19;;;;;;;4.80;3.03;;;32.70;28.80;;;;;;5099385;28;21588;-72
2022/06/18 10:42:09;;;;;;;3.40;3.00;;;32.70;28.90;;;;;;5002546;28;20437;-73
2022/06/18 10:44:44;;;;;;;3.57;2.97;;;33.00;28.90;;;;;;5086511;28;20429;-73
2022/06/18 10:47:17;;;;;;;5.53;2.73;;;33.50;28.50;;;;;;5090726;28;20420;-73
2022/06/18 10:49:44;;;;;;;4.80;3.27;;;33.70;27.20;;;;;;5088787;28;20549;-73
2022/06/18 10:52:25;;;;;;;6.40;4.50;;;33.80;26.50;;;;;;5088766;28;20505;-72
2022/06/18 10:55:10;;;;;;;6.93;3.87;;;33.60;29.00;;;;;;5085827;28;20644;-73
2022/06/18 10:57:36;;;;;;;2.60;2.30;;;33.80;28.60;;;;;;5091115;28;20637;-72
2022/06/18 11:00:11;;;;;;;4.03;2.27;;;34.00;25.70;;;;;;5083888;28;20454;-72
2022/06/18 11:02:38;;;;;;;4.77;3.00;;;34.10;25.70;;;;;;5087044;28;20895;-72
2022/06/18 11:05:22;;;;;;;7.73;3.20;;;34.30;25.90;;;;;;5083779;28;20576;-72
2022/06/18 11:07:50;;;;;;;4.93;3.50;;;34.10;25.60;;;;;;5087976;28;20418;-73
2022/06/18 11:10:43;;;;;;;8.77;3.10;;;33.90;27.50;;;;;;5081909;28;20971;-72
2022/06/18 11:13:35;;;;;;;3.20;3.10;;;33.90;28.80;;;;;;5086524;28;20414;-72
2022/06/18 11:16:13;;;;;;;4.20;3.13;;;34.10;28.40;;;;;;5079033;28;20685;-73
2022/06/18 11:18:57;;;;;;;4.63;3.60;;;34.20;27.00;;;;;;5077142;28;20434;-73
2022/06/18 11:21:31;;;;;;;5.83;3.13;;;34.20;27.20;;;;;;5083658;28;20424;-73
2022/06/18 11:24:29;;;;;;;6.83;3.33;;;34.30;27.20;;;;;;5077912;28;20907;-71
2022/06/18 11:26:58;;;;;;;8.80;3.87;;;34.40;28.00;;;;;;5080546;28;20429;-73
2022/06/18 11:29:40;;;;;;;6.67;3.90;;;34.60;28.10;;;;;;5082023;28;20460;-73
2022/06/18 11:32:45;;;;;;;6.03;3.80;;;34.40;28.50;;;;;;5087516;28;20410;-72
2022/06/18 11:35:13;;;;;;;7.47;3.57;;;34.30;28.20;;;;;;5027154;28;20423;-73
2022/06/18 11:37:40;;;;;;;5.93;3.17;;;34.30;28.30;;;;;;5028238;28;20480;-73
2022/06/18 11:40:11;;;;;;;7.90;4.30;;;34.30;28.40;;;;;;5029080;28;20659;-73
2022/06/18 11:43:07;;;;;;;7.93;3.80;;;34.40;28.50;;;;;;5034592;28;20421;-74
2022/06/18 11:45:42;;;;;;;3.60;3.40;;;34.40;28.90;;;;;;5027906;28;20418;-73
2022/06/18 11:48:30;;;;;;;6.00;3.70;;;34.70;28.40;;;;;;5027577;28;20419;-72
2022/06/18 11:51:22;;;;;;;6.13;3.93;;;35.00;28.20;;;;;;5033006;28;20439;-73
2022/06/18 11:54:28;;;;;;;6.33;3.87;;;34.40;28.50;;;;;;5023747;28;20834;-73
2022/06/18 11:57:11;;;;;;;5.67;3.90;;;34.10;29.00;;;;;;5025433;28;20499;-72
2022/06/18 11:59:40;;;;;;;6.80;3.80;;;34.50;28.70;;;;;;5020357;28;20566;-74
2022/06/18 12:02:31;;;;;;;7.83;4.07;;;34.90;27.20;;;;;;5005310;28;20423;-74
2022/06/18 12:05:08;;;;;;;9.43;4.40;;;34.80;27.10;;;;;;5028632;28;20424;-74
2022/06/18 12:07:56;;;;;;;5.53;3.50;;;34.90;27.30;;;;;;5020675;28;20429;-73
2022/06/18 12:10:28;;;;;;;9.73;3.60;;;35.00;27.10;;;;;;5006719;28;21045;-71
2022/06/18 12:13:21;;;;;;;5.80;3.70;;;35.00;26.60;;;;;;5081288;28;20923;-71
2022/06/18 12:16:02;;;;;;;8.50;4.13;;;35.10;27.30;;;;;;5073393;28;20972;-73
2022/06/18 12:19:04;;;;;;;8.73;3.83;;;35.10;27.20;;;;;;5085721;28;20429;-72
2022/06/18 12:21:53;;;;;;;8.53;4.03;;;35.10;27.10;;;;;;5079187;28;20529;-73
2022/06/18 12:24:38;;;;;;;11.63;4.00;;;35.50;25.70;;;;;;5074338;28;20406;-72
2022/06/18 12:27:16;;;;;;;14.43;4.07;;;35.80;25.70;;;;;;5081260;28;20415;-73
2022/06/18 12:30:02;;;;;;;9.40;4.30;;;35.90;26.10;;;;;;5077155;28;20979;-73
2022/06/18 12:32:38;;;;;;;10.83;4.27;;;36.30;25.70;;;;;;5079053;28;20417;-72
2022/06/18 12:35:16;;;;;;;11.40;4.67;;;36.60;25.60;;;;;;5079147;28;20518;-73
2022/06/18 12:38:02;;;;;;;16.80;4.43;;;36.70;25.00;;;;;;5081256;28;20514;-73
2022/06/18 12:40:51;;;;;;;12.87;5.03;;;36.70;24.40;;;;;;5079676;28;20943;-74
2022/06/18 12:43:27;;;;;;;13.30;4.80;;;37.20;25.60;;;;;;5069124;28;20440;-72
2022/06/18 12:46:07;;;;;;;13.40;5.20;;;37.20;25.80;;;;;;5084438;28;20513;-73
2022/06/18 12:48:51;;;;;;;12.70;5.00;;;37.20;25.70;;;;;;5083429;28;20508;-73
2022/06/18 12:51:24;;;;;;;11.43;4.00;;;37.00;25.90;;;;;;5086469;28;20479;-73
2022/06/18 12:54:19;;;;;;;11.73;5.00;;;37.30;26.20;;;;;;5085478;28;20426;-72
2022/06/18 12:56:54;;;;;;;11.27;4.70;;;37.40;26.20;;;;;;5072457;28;20462;-72
2022/06/18 12:59:42;;;;;;;11.90;5.27;;;37.40;26.60;;;;;;5079207;28;20453;-73
2022/06/18 13:02:20;;;;;;;13.30;4.57;;;37.40;26.30;;;;;;5076422;28;21082;-72
2022/06/18 13:04:58;;;;;;;13.33;5.63;;;36.90;26.50;;;;;;5078436;28;21174;-74
2022/06/18 13:07:33;;;;;;;13.07;5.10;;;37.10;26.90;;;;;;5077524;28;20449;-73
2022/06/18 13:10:20;;;;;;;11.90;4.20;;;37.20;26.90;;;;;;5079155;28;20449;-73
2022/06/18 13:13:15;;;;;;;10.70;4.97;;;37.60;26.60;;;;;;5079863;28;20424;-72
2022/06/18 13:15:47;;;;;;;10.30;5.00;;;37.20;27.00;;;;;;5082986;28;20437;-73
2022/06/18 13:18:39;;;;;;;7.97;4.60;;;37.20;27.50;;;;;;5083563;28;20422;-74
2022/06/18 13:21:08;;;;;;;8.87;4.10;;;37.40;27.30;;;;;;5076577;28;20418;-73
2022/06/18 13:29:24;;;;;;;10.40;5.30;;;38.20;27.00;;;;;;5079112;28;20456;-73
2022/06/18 13:32:24;;;;;;;12.10;5.10;;;38.20;26.80;;;;;;5080730;28;20425;-74
2022/06/18 13:35:10;;;;;;;7.37;5.00;;;38.50;26.60;;;;;;5084978;28;20420;-73